Time;durP1;ratioP1;P1;durP2;ratioP2;P2;SDS_P1;SDS_P2;PMS_P1;PMS_P2;Temp;Humidity;BMP_temperature;BMP_pressure;BME280_temperature;BME280_humidity;BME280_pressure;Samples;Min_cycle;Max_cycle;Signal;HPM_P1;HPM_P2
2021/01/23 00:01:59;;;;;;;;;;;24.00;41.90;;;;;;1546836;75;703;-65
2021/01/23 00:04:00;;;;;;;;;;;24.00;41.80;;;;;;1537090;75;714;-66
2021/01/23 00:06:02;;;;;;;;;;;23.90;41.80;;;;;;1539286;75;724;-65
2021/01/23 00:08:05;;;;;;;;;;;24.00;41.90;;;;;;1547806;75;1157;-67
2021/01/23 00:10:07;;;;;;;;;;;24.00;41.80;;;;;;1545663;75;706;-66
2021/01/23 00:12:09;;;;;;;;;;;24.00;41.90;;;;;;1507918;77;727;-65
2021/01/23 00:14:11;;;;;;;;;;;24.00;41.90;;;;;;1541444;75;806;-67
2021/01/23 00:16:13;;;;;;;;;;;23.90;41.90;;;;;;1550677;75;1944;-67
2021/01/23 00:18:14;;;;;;;;;;;24.00;42.00;;;;;;1528515;77;1138;-66
2021/01/23 00:20:16;;;;;;;;;;;24.00;42.00;;;;;;1534092;76;761;-66
2021/01/23 00:22:18;;;;;;;;;;;24.00;42.00;;;;;;1528833;76;790;-66
2021/01/23 00:24:20;;;;;;;;;;;23.90;42.00;;;;;;1512933;78;783;-64
2021/01/23 00:26:22;;;;;;;;;;;24.00;42.10;;;;;;1555056;75;683;-64
2021/01/23 00:28:24;;;;;;;;;;;24.00;42.10;;;;;;1551657;75;1158;-64
2021/01/23 00:30:26;;;;;;;;;;;24.00;42.10;;;;;;1507974;77;662;-64
2021/01/23 00:32:28;;;;;;;;;;;24.00;42.20;;;;;;1542636;75;663;-64
2021/01/23 00:34:29;;;;;;;;;;;24.00;42.20;;;;;;1543163;75;1948;-63
2021/01/23 00:36:31;;;;;;;;;;;24.00;42.20;;;;;;1548979;75;729;-63
2021/01/23 00:38:33;;;;;;;;;;;24.00;42.30;;;;;;1552337;75;1173;-65
2021/01/23 00:40:35;;;;;;;;;;;24.00;42.30;;;;;;1548348;75;737;-65
2021/01/23 00:42:37;;;;;;;;;;;23.90;42.40;;;;;;1508200;77;807;-64
2021/01/23 00:44:39;;;;;;;;;;;24.00;42.40;;;;;;1554336;76;789;-64
2021/01/23 00:46:41;;;;;;;;;;;24.00;42.50;;;;;;1552655;75;780;-63
2021/01/23 00:48:43;;;;;;;;;;;24.00;42.30;;;;;;1554130;76;1087;-64
2021/01/23 00:50:45;;;;;;;;;;;24.00;42.30;;;;;;1508771;77;787;-64
2021/01/23 00:52:47;;;;;;;;;;;24.00;42.30;;;;;;1553759;75;694;-64
2021/01/23 00:54:48;;;;;;;;;;;24.10;42.30;;;;;;1546843;75;1947;-64
2021/01/23 00:56:50;;;;;;;;;;;24.00;42.10;;;;;;1550865;75;681;-63
2021/01/23 00:58:52;;;;;;;;;;;24.00;42.10;;;;;;1555486;75;820;-63
2021/01/23 01:00:54;;;;;;;;;;;24.00;42.00;;;;;;1529492;77;746;-63
2021/01/23 01:02:56;;;;;;;;;;;24.00;41.90;;;;;;1553938;76;808;-64
2021/01/23 01:04:58;;;;;;;;;;;24.00;41.90;;;;;;1509170;77;679;-64
2021/01/23 01:07:00;;;;;;;;;;;24.00;41.80;;;;;;1552130;75;1094;-64
2021/01/23 01:09:01;;;;;;;;;;;24.00;41.80;;;;;;1555520;76;686;-64
2021/01/23 01:11:03;;;;;;;;;;;24.00;41.80;;;;;;1512238;77;717;-64
2021/01/23 01:13:05;;;;;;;;;;;24.00;41.70;;;;;;1552998;75;676;-65
2021/01/23 01:15:08;;;;;;;;;;;24.00;41.70;;;;;;1549233;75;1915;-64
2021/01/23 01:17:09;;;;;;;;;;;24.00;41.70;;;;;;1512279;77;1160;-64
2021/01/23 01:19:11;;;;;;;;;;;24.00;41.60;;;;;;1550525;75;719;-64
2021/01/23 01:21:13;;;;;;;;;;;24.00;41.60;;;;;;1552528;76;721;-65
2021/01/23 01:23:15;;;;;;;;;;;24.00;41.60;;;;;;1509728;77;690;-65
2021/01/23 01:25:17;;;;;;;;;;;24.00;41.50;;;;;;1546576;75;599;-64
2021/01/23 01:27:19;;;;;;;;;;;24.00;41.50;;;;;;1536787;75;1194;-64
2021/01/23 01:29:21;;;;;;;;;;;24.00;41.40;;;;;;1540540;76;649;-64
2021/01/23 01:31:22;;;;;;;;;;;23.90;41.40;;;;;;1542737;75;716;-63
2021/01/23 01:33:24;;;;;;;;;;;24.00;41.30;;;;;;1497561;77;742;-64
2021/01/23 01:35:26;;;;;;;;;;;23.90;41.20;;;;;;1555192;75;1949;-64
2021/01/23 01:37:28;;;;;;;;;;;23.90;41.20;;;;;;1544983;76;1135;-65
2021/01/23 01:39:30;;;;;;;;;;;23.90;41.10;;;;;;1547007;75;786;-65
2021/01/23 01:41:32;;;;;;;;;;;23.90;41.20;;;;;;1522944;78;697;-64
2021/01/23 01:43:34;;;;;;;;;;;24.00;41.20;;;;;;1555255;76;774;-65
2021/01/23 01:45:36;;;;;;;;;;;23.90;41.10;;;;;;1546298;75;705;-66
2021/01/23 01:47:37;;;;;;;;;;;24.00;41.10;;;;;;1550652;76;1100;-63
2021/01/23 01:49:39;;;;;;;;;;;24.00;41.00;;;;;;1555585;75;796;-64
2021/01/23 01:51:41;;;;;;;;;;;24.00;41.00;;;;;;1555104;75;820;-64
2021/01/23 01:53:44;;;;;;;;;;;23.90;41.00;;;;;;1553160;75;720;-63
2021/01/23 01:55:46;;;;;;;;;;;24.00;40.90;;;;;;1551722;76;1913;-64
2021/01/23 01:57:47;;;;;;;;;;;23.90;40.90;;;;;;1552914;75;1074;-63
2021/01/23 01:59:49;;;;;;;;;;;23.90;40.90;;;;;;1554783;75;799;-63
2021/01/23 02:01:53;;;;;;;;;;;23.90;41.00;;;;;;1556728;75;743;-62
2021/01/23 02:04:05;;;;;;;;;;;23.90;41.00;;;;;;1555985;75;1146;-64
2021/01/23 02:06:14;;;;;;;;;;;23.90;41.00;;;;;;1552918;75;800;-65
2021/01/23 02:08:18;;;;;;;;;;;23.90;40.90;;;;;;1553057;75;1147;-65
2021/01/23 02:10:24;;;;;;;;;;;23.90;40.90;;;;;;1548760;76;755;-63
2021/01/23 02:12:28;;;;;;;;;;;23.90;41.00;;;;;;1516460;76;1131;-65
2021/01/23 02:14:31;;;;;;;;;;;23.90;40.90;;;;;;1509063;77;681;-64
2021/01/23 02:16:34;;;;;;;;;;;23.90;40.90;;;;;;1555054;75;1943;-64
2021/01/23 02:18:41;;;;;;;;;;;23.90;40.90;;;;;;1515229;76;1944;-64
2021/01/23 02:20:47;;;;;;;;;;;23.90;40.90;;;;;;1511657;76;724;-64
2021/01/23 02:23:13;;;;;;;;;;;23.90;40.90;;;;;;1546638;76;694;-64
2021/01/23 02:25:15;;;;;;;;;;;23.90;41.00;;;;;;1552309;76;733;-64
2021/01/23 02:27:35;;;;;;;;;;;23.80;41.00;;;;;;1540538;76;1159;-63
2021/01/23 02:29:39;;;;;;;;;;;23.80;41.00;;;;;;1516674;77;687;-64
2021/01/23 02:31:41;;;;;;;;;;;23.80;40.90;;;;;;1545115;76;943;-62
2021/01/23 02:33:45;;;;;;;;;;;23.80;40.90;;;;;;1548446;76;761;-63
2021/01/23 02:35:46;;;;;;;;;;;23.90;40.90;;;;;;1546770;76;1931;-61
2021/01/23 02:37:48;;;;;;;;;;;23.90;40.90;;;;;;1543482;76;1146;-63
2021/01/23 02:39:51;;;;;;;;;;;23.90;40.80;;;;;;1546284;76;721;-63
2021/01/23 02:41:53;;;;;;;;;;;23.90;40.90;;;;;;1545892;76;743;-64
2021/01/23 02:43:55;;;;;;;;;;;23.90;40.80;;;;;;1547125;76;717;-64
2021/01/23 02:45:57;;;;;;;;;;;23.90;40.70;;;;;;1545180;76;761;-64
2021/01/23 02:47:59;;;;;;;;;;;23.90;40.90;;;;;;1547503;76;1099;-64
2021/01/23 02:50:01;;;;;;;;;;;23.90;40.80;;;;;;1548825;76;699;-64
2021/01/23 02:52:05;;;;;;;;;;;23.90;40.70;;;;;;1546914;76;660;-64
2021/01/23 02:54:08;;;;;;;;;;;23.90;40.70;;;;;;1546401;76;693;-64
2021/01/23 02:56:11;;;;;;;;;;;23.90;40.70;;;;;;1546428;76;1911;-64
2021/01/23 02:58:13;;;;;;;;;;;23.90;40.70;;;;;;1522464;77;1140;-64
2021/01/23 03:00:16;;;;;;;;;;;23.90;40.60;;;;;;1549223;76;728;-64
2021/01/23 03:02:18;;;;;;;;;;;23.90;40.60;;;;;;1548220;76;676;-64
2021/01/23 03:04:20;;;;;;;;;;;23.90;40.50;;;;;;1544835;77;686;-64
2021/01/23 03:06:22;;;;;;;;;;;23.90;40.50;;;;;;1548620;76;620;-64
2021/01/23 03:08:24;;;;;;;;;;;23.90;40.60;;;;;;1546604;75;1142;-65
2021/01/23 03:10:35;;;;;;;;;;;23.90;40.40;;;;;;1545352;76;838;-64
2021/01/23 03:12:37;;;;;;;;;;;23.90;40.40;;;;;;1521423;77;750;-64
2021/01/23 03:14:39;;;;;;;;;;;24.00;40.40;;;;;;1553032;76;734;-65
2021/01/23 03:16:51;;;;;;;;;;;23.90;40.30;;;;;;1528379;77;1937;-66
2021/01/23 03:18:53;;;;;;;;;;;23.90;40.30;;;;;;1528434;77;702;-63
2021/01/23 03:20:54;;;;;;;;;;;23.90;40.20;;;;;;1551736;76;728;-63
2021/01/23 03:22:56;;;;;;;;;;;23.90;40.20;;;;;;1548891;76;729;-64
2021/01/23 03:24:58;;;;;;;;;;;23.90;40.20;;;;;;1549489;76;826;-64
2021/01/23 03:27:00;;;;;;;;;;;23.90;40.20;;;;;;1555554;75;1166;-64
2021/01/23 03:29:02;;;;;;;;;;;23.90;40.30;;;;;;1511138;77;717;-64
2021/01/23 03:31:04;;;;;;;;;;;23.90;40.30;;;;;;1554692;75;721;-64
2021/01/23 03:33:06;;;;;;;;;;;23.90;40.20;;;;;;1549159;75;708;-63
2021/01/23 03:35:08;;;;;;;;;;;23.90;40.30;;;;;;1512761;77;788;-62
2021/01/23 03:37:10;;;;;;;;;;;23.90;40.30;;;;;;1514141;78;1934;-63
2021/01/23 03:39:12;;;;;;;;;;;23.90;40.40;;;;;;1517672;77;722;-62
2021/01/23 03:41:14;;;;;;;;;;;23.80;40.20;;;;;;1549150;76;681;-62
2021/01/23 03:43:16;;;;;;;;;;;23.80;40.30;;;;;;1548245;76;727;-63
2021/01/23 03:45:17;;;;;;;;;;;23.90;40.40;;;;;;1546752;77;773;-62
2021/01/23 03:47:19;;;;;;;;;;;23.80;40.40;;;;;;1545963;76;1046;-62
2021/01/23 03:49:21;;;;;;;;;;;23.80;40.50;;;;;;1547436;76;731;-64
2021/01/23 03:51:23;;;;;;;;;;;23.80;40.50;;;;;;1547092;76;697;-63
2021/01/23 03:53:25;;;;;;;;;;;23.70;40.60;;;;;;1544747;76;797;-64
2021/01/23 03:55:27;;;;;;;;;;;23.80;40.70;;;;;;1547484;76;701;-64
2021/01/23 03:57:29;;;;;;;;;;;23.70;40.90;;;;;;1549663;75;1927;-64
2021/01/23 03:59:31;;;;;;;;;;;23.70;41.10;;;;;;1545437;76;709;-63
2021/01/23 04:01:32;;;;;;;;;;;23.60;41.00;;;;;;1548589;75;782;-62
2021/01/23 04:03:34;;;;;;;;;;;23.60;41.00;;;;;;1542767;76;659;-63
2021/01/23 04:05:36;;;;;;;;;;;23.60;40.90;;;;;;1548487;76;740;-62
2021/01/23 04:07:38;;;;;;;;;;;23.60;41.00;;;;;;1548992;76;1162;-64
2021/01/23 04:09:40;;;;;;;;;;;23.60;41.00;;;;;;1549060;76;647;-64
2021/01/23 04:11:42;;;;;;;;;;;23.60;41.00;;;;;;1548870;75;713;-63
2021/01/23 04:13:44;;;;;;;;;;;23.60;41.10;;;;;;1548143;76;722;-64
2021/01/23 04:15:46;;;;;;;;;;;23.50;41.10;;;;;;1546886;76;807;-64
2021/01/23 04:17:48;;;;;;;;;;;23.50;41.30;;;;;;1549165;76;1158;-64
2021/01/23 04:19:49;;;;;;;;;;;23.50;41.30;;;;;;1549691;76;803;-64
2021/01/23 04:21:51;;;;;;;;;;;23.50;41.30;;;;;;1546278;76;702;-64
2021/01/23 04:23:53;;;;;;;;;;;23.50;41.40;;;;;;1545115;76;731;-62
2021/01/23 04:25:55;;;;;;;;;;;23.50;41.40;;;;;;1554439;76;770;-63
2021/01/23 04:27:57;;;;;;;;;;;23.50;41.30;;;;;;1556580;75;1163;-64
2021/01/23 04:29:59;;;;;;;;;;;23.50;41.30;;;;;;1555681;76;719;-63
2021/01/23 04:32:01;;;;;;;;;;;23.50;41.30;;;;;;1555720;75;682;-63
2021/01/23 04:34:03;;;;;;;;;;;23.50;41.30;;;;;;1556136;75;722;-64
2021/01/23 04:36:05;;;;;;;;;;;23.40;41.00;;;;;;1538826;76;1935;-61
2021/01/23 04:38:07;;;;;;;;;;;23.40;41.10;;;;;;1548386;76;1150;-63
2021/01/23 04:40:09;;;;;;;;;;;23.40;41.30;;;;;;1529426;76;757;-62
2021/01/23 04:42:11;;;;;;;;;;;23.40;41.30;;;;;;1555089;75;724;-64
2021/01/23 04:44:13;;;;;;;;;;;23.40;41.20;;;;;;1554000;75;714;-63
2021/01/23 04:46:16;;;;;;;;;;;23.40;41.10;;;;;;1544916;75;782;-63
2021/01/23 04:48:19;;;;;;;;;;;23.40;41.10;;;;;;1512262;77;1204;-64
2021/01/23 04:50:20;;;;;;;;;;;23.50;41.00;;;;;;1518791;77;719;-63
2021/01/23 04:52:22;;;;;;;;;;;23.40;41.00;;;;;;1518814;77;721;-63
2021/01/23 04:54:24;;;;;;;;;;;23.40;41.00;;;;;;1518797;77;707;-64
2021/01/23 04:56:31;;;;;;;;;;;23.40;40.90;;;;;;1539616;77;1943;-64
2021/01/23 04:58:30;;;;;;;;;;;23.50;41.00;;;;;;1548482;76;1121;-65
2021/01/23 05:00:32;;;;;;;;;;;23.50;40.90;;;;;;1550223;76;703;-64
2021/01/23 05:02:34;;;;;;;;;;;23.50;40.90;;;;;;1547979;75;727;-64
2021/01/23 05:04:45;;;;;;;;;;;23.50;40.90;;;;;;1547612;76;696;-63
2021/01/23 05:06:47;;;;;;;;;;;23.40;40.60;;;;;;1543312;76;720;-63
2021/01/23 05:08:49;;;;;;;;;;;23.40;40.50;;;;;;1536160;76;1105;-62
2021/01/23 05:10:52;;;;;;;;;;;23.40;40.60;;;;;;1583850;75;742;-62
2021/01/23 05:12:54;;;;;;;;;;;23.50;40.70;;;;;;1536940;76;1219;-64
2021/01/23 05:14:56;;;;;;;;;;;23.40;40.50;;;;;;1556080;76;671;-63
2021/01/23 05:17:00;;;;;;;;;;;23.50;40.60;;;;;;1521604;76;1932;-64
2021/01/23 05:19:02;;;;;;;;;;;23.40;40.60;;;;;;1529052;76;1382;-62
2021/01/23 05:21:05;;;;;;;;;;;23.50;40.70;;;;;;1553065;75;800;-63
2021/01/23 05:23:09;;;;;;;;;;;23.40;40.50;;;;;;1546654;76;1632;-63
2021/01/23 05:25:11;;;;;;;;;;;23.40;40.50;;;;;;1549405;76;1343;-63
2021/01/23 05:27:12;;;;;;;;;;;23.50;40.60;;;;;;1509080;77;1188;-63
2021/01/23 05:29:15;;;;;;;;;;;23.50;40.70;;;;;;1528034;76;694;-64
2021/01/23 05:31:17;;;;;;;;;;;23.50;41.10;;;;;;1512979;78;715;-63
2021/01/23 05:33:22;;;;;;;;;;;23.50;40.70;;;;;;1518718;77;717;-64
2021/01/23 05:35:24;;;;;;;;;;;23.50;40.60;;;;;;1549018;76;811;-64
2021/01/23 05:37:33;;;;;;;;;;;23.50;40.70;;;;;;1549952;76;1919;-63
2021/01/23 05:39:48;;;;;;;;;;;23.50;41.00;;;;;;1547095;76;782;-64
2021/01/23 05:42:05;;;;;;;;;;;23.40;40.70;;;;;;1555242;75;708;-63
2021/01/23 05:44:08;;;;;;;;;;;23.50;40.70;;;;;;1553494;75;856;-64
2021/01/23 05:46:11;;;;;;;;;;;23.50;40.70;;;;;;1549065;76;1851;-65
2021/01/23 05:48:13;;;;;;;;;;;23.50;40.70;;;;;;1556538;76;1140;-64
2021/01/23 05:50:15;;;;;;;;;;;23.50;40.70;;;;;;1553660;76;650;-65
2021/01/23 05:52:17;;;;;;;;;;;23.50;40.70;;;;;;1549211;77;712;-65
2021/01/23 05:54:19;;;;;;;;;;;23.50;40.80;;;;;;1541399;77;699;-63
2021/01/23 05:56:21;;;;;;;;;;;23.50;40.80;;;;;;1541729;75;904;-64
2021/01/23 05:58:22;;;;;;;;;;;23.50;40.70;;;;;;1539328;76;1940;-63
2021/01/23 06:00:24;;;;;;;;;;;23.50;40.60;;;;;;1576609;74;762;-63
2021/01/23 06:02:26;;;;;;;;;;;23.50;40.50;;;;;;1576934;73;737;-62
2021/01/23 06:04:28;;;;;;;;;;;23.50;40.70;;;;;;1569735;74;681;-63
2021/01/23 06:06:38;;;;;;;;;;;23.50;40.60;;;;;;1574952;74;704;-63
2021/01/23 06:08:40;;;;;;;;;;;23.60;40.40;;;;;;1549375;75;1257;-64
2021/01/23 06:10:42;;;;;;;;;;;23.50;40.40;;;;;;1584104;74;766;-64
2021/01/23 06:12:44;;;;;;;;;;;23.50;40.40;;;;;;1584897;75;682;-66
2021/01/23 06:14:46;;;;;;;;;;;23.60;40.40;;;;;;1571839;74;667;-66
2021/01/23 06:16:48;;;;;;;;;;;23.60;40.50;;;;;;1579547;75;1949;-66
2021/01/23 06:18:49;;;;;;;;;;;23.60;40.40;;;;;;1579384;74;1113;-66
2021/01/23 06:20:52;;;;;;;;;;;23.60;40.20;;;;;;1578279;74;666;-66
2021/01/23 06:22:54;;;;;;;;;;;23.60;40.20;;;;;;1577540;74;710;-67
2021/01/23 06:24:56;;;;;;;;;;;23.60;40.20;;;;;;1577701;74;729;-66
2021/01/23 06:27:01;;;;;;;;;;;23.60;40.20;;;;;;1574130;74;1268;-67
2021/01/23 06:29:03;;;;;;;;;;;23.60;40.20;;;;;;1577608;74;740;-66
2021/01/23 06:31:12;;;;;;;;;;;23.70;40.20;;;;;;1583929;74;727;-65
2021/01/23 06:33:25;;;;;;;;;;;23.60;40.00;;;;;;1577231;75;1507;-65
2021/01/23 06:35:27;;;;;;;;;;;23.60;40.10;;;;;;1572868;74;704;-63
2021/01/23 06:37:29;;;;;;;;;;;23.70;40.20;;;;;;1581395;74;1932;-65
2021/01/23 06:39:33;;;;;;;;;;;23.60;40.00;;;;;;1587444;74;688;-63
2021/01/23 06:41:36;;;;;;;;;;;23.60;40.00;;;;;;1579256;74;713;-64
2021/01/23 06:43:38;;;;;;;;;;;23.60;39.80;;;;;;1573853;74;1079;-64
2021/01/23 06:45:40;;;;;;;;;;;23.60;39.90;;;;;;1586365;74;750;-64
2021/01/23 06:47:42;;;;;;;;;;;23.70;40.00;;;;;;1578579;74;1188;-64
2021/01/23 06:49:44;;;;;;;;;;;23.70;40.00;;;;;;1584267;74;740;-64
2021/01/23 06:51:46;;;;;;;;;;;23.60;39.70;;;;;;1584969;74;672;-64
2021/01/23 06:53:48;;;;;;;;;;;23.70;39.90;;;;;;1578338;74;672;-64
2021/01/23 06:55:54;;;;;;;;;;;23.70;40.00;;;;;;1572449;74;769;-63
2021/01/23 06:57:56;;;;;;;;;;;23.70;40.10;;;;;;1576430;74;1946;-62
2021/01/23 06:59:57;;;;;;;;;;;23.70;39.90;;;;;;1575404;74;684;-63
2021/01/23 07:02:04;;;;;;;;;;;23.70;40.00;;;;;;1575677;75;754;-64
2021/01/23 07:04:06;;;;;;;;;;;23.70;39.90;;;;;;1578803;73;743;-64
2021/01/23 07:06:08;;;;;;;;;;;23.70;39.90;;;;;;1575895;74;639;-65
2021/01/23 07:08:12;;;;;;;;;;;23.80;40.10;;;;;;1584538;74;1080;-64
2021/01/23 07:10:17;;;;;;;;;;;23.70;40.00;;;;;;1576657;74;1724;-64
2021/01/23 07:12:37;;;;;;;;;;;23.60;40.00;;;;;;1573801;74;763;-63
2021/01/23 07:14:39;;;;;;;;;;;23.70;40.10;;;;;;1583686;74;755;-65
2021/01/23 07:16:42;;;;;;;;;;;23.70;40.10;;;;;;1580700;74;934;-64
2021/01/23 07:18:44;;;;;;;;;;;23.80;40.00;;;;;;1580615;74;1926;-66
2021/01/23 07:20:46;;;;;;;;;;;23.70;40.00;;;;;;1584825;74;733;-66
2021/01/23 07:22:48;;;;;;;;;;;23.70;40.10;;;;;;1574103;74;715;-67
2021/01/23 07:24:50;;;;;;;;;;;23.70;40.00;;;;;;1575570;74;765;-66
2021/01/23 07:26:52;;;;;;;;;;;23.70;40.00;;;;;;1582291;74;815;-66
2021/01/23 07:28:54;;;;;;;;;;;23.70;39.90;;;;;;1580552;74;756;-65
2021/01/23 07:30:56;;;;;;;;;;;23.60;39.80;;;;;;1574813;74;723;-66
2021/01/23 07:32:58;;;;;;;;;;;23.60;40.00;;;;;;1573284;75;743;-66
2021/01/23 07:35:00;;;;;;;;;;;23.70;40.00;;;;;;1583229;75;717;-65
2021/01/23 07:37:02;;;;;;;;;;;23.70;39.80;;;;;;1577564;74;1934;-64
2021/01/23 07:39:05;;;;;;;;;;;23.70;39.80;;;;;;1579308;74;687;-65
2021/01/23 07:41:07;;;;;;;;;;;23.70;39.90;;;;;;1574398;74;2025;-65
2021/01/23 07:43:09;;;;;;;;;;;23.60;39.80;;;;;;1583453;75;689;-65
2021/01/23 07:45:12;;;;;;;;;;;23.70;40.00;;;;;;1583057;74;698;-64
2021/01/23 07:47:13;;;;;;;;;;;23.70;39.90;;;;;;1580912;73;1098;-66
2021/01/23 07:49:17;;;;;;;;;;;23.70;39.70;;;;;;1584636;74;681;-65
2021/01/23 07:51:28;;;;;;;;;;;23.70;40.10;;;;;;1591366;75;1881;-65
2021/01/23 07:53:30;;;;;;;;;;;23.70;40.10;;;;;;1591651;74;727;-65
2021/01/23 07:55:38;;;;;;;;;;;23.70;40.10;;;;;;1591068;75;704;-66
2021/01/23 07:57:40;;;;;;;;;;;23.70;40.00;;;;;;1591465;74;1926;-66
2021/01/23 07:59:45;;;;;;;;;;;23.70;40.00;;;;;;1584115;74;776;-66
2021/01/23 08:01:47;;;;;;;;;;;23.70;39.90;;;;;;1591600;74;730;-67
2021/01/23 08:03:49;;;;;;;;;;;23.80;39.90;;;;;;1591264;74;715;-66
2021/01/23 08:05:51;;;;;;;;;;;23.70;40.00;;;;;;1591133;74;688;-66
2021/01/23 08:07:54;;;;;;;;;;;23.70;40.00;;;;;;1591743;74;1184;-66
2021/01/23 08:10:09;;;;;;;;;;;23.70;39.90;;;;;;1591562;74;764;-65
2021/01/23 08:12:18;;;;;;;;;;;23.70;40.00;;;;;;1576501;74;710;-65
2021/01/23 08:14:20;;;;;;;;;;;23.70;40.00;;;;;;1587088;74;883;-63
2021/01/23 08:16:22;;;;;;;;;;;23.70;40.20;;;;;;1567859;74;666;-62
2021/01/23 08:18:24;;;;;;;;;;;23.70;39.80;;;;;;1579692;74;1947;-62
2021/01/23 08:20:33;;;;;;;;;;;23.80;39.10;;;;;;1589996;74;610;-64
2021/01/23 08:22:37;;;;;;;;;;;23.90;38.90;;;;;;1592322;74;716;-64
2021/01/23 08:24:39;;;;;;;;;;;23.80;38.50;;;;;;1581543;74;944;-64
2021/01/23 08:26:41;;;;;;;;;;;23.80;38.70;;;;;;1570264;74;784;-66
2021/01/23 08:28:46;;;;;;;;;;;23.80;38.50;;;;;;1584700;74;1130;-67
2021/01/23 08:30:48;;;;;;;;;;;23.90;38.70;;;;;;1584854;74;698;-63
2021/01/23 08:32:51;;;;;;;;;;;23.80;38.80;;;;;;1585901;73;725;-62
2021/01/23 08:34:52;;;;;;;;;;;23.80;38.90;;;;;;1591464;74;727;-62
2021/01/23 08:36:54;;;;;;;;;;;23.70;37.10;;;;;;1590037;73;1137;-62
2021/01/23 08:38:57;;;;;;;;;;;23.70;36.20;;;;;;1587001;73;1938;-62
2021/01/23 08:40:58;;;;;;;;;;;23.80;35.50;;;;;;1590474;73;842;-62
2021/01/23 08:43:00;;;;;;;;;;;23.60;34.70;;;;;;1586294;73;710;-60
2021/01/23 08:45:03;;;;;;;;;;;23.70;34.10;;;;;;1589480;73;1052;-62
2021/01/23 08:47:05;;;;;;;;;;;23.60;33.40;;;;;;1587241;73;1179;-61
2021/01/23 08:49:07;;;;;;;;;;;23.50;33.00;;;;;;1593553;73;595;-61
2021/01/23 08:51:09;;;;;;;;;;;23.50;32.70;;;;;;1590213;73;691;-61
2021/01/23 08:53:10;;;;;;;;;;;23.40;32.60;;;;;;1590814;73;698;-61
2021/01/23 08:55:12;;;;;;;;;;;23.50;32.50;;;;;;1585698;73;619;-61
2021/01/23 08:57:14;;;;;;;;;;;23.40;32.20;;;;;;1579913;73;1149;-60
2021/01/23 08:59:16;;;;;;;;;;;23.30;32.00;;;;;;1580265;73;1946;-61
2021/01/23 09:01:18;;;;;;;;;;;23.30;31.90;;;;;;1583662;73;732;-61
2021/01/23 09:03:20;;;;;;;;;;;23.20;31.80;;;;;;1576713;73;664;-61
2021/01/23 09:05:22;;;;;;;;;;;23.20;31.80;;;;;;1596237;73;719;-61
2021/01/23 09:07:23;;;;;;;;;;;23.20;31.60;;;;;;1579546;73;1160;-61
2021/01/23 09:09:25;;;;;;;;;;;23.10;31.50;;;;;;1589382;73;712;-62
2021/01/23 09:11:27;;;;;;;;;;;23.10;31.40;;;;;;1583088;73;688;-62
2021/01/23 09:13:29;;;;;;;;;;;23.00;31.30;;;;;;1582151;73;706;-61
2021/01/23 09:15:31;;;;;;;;;;;23.10;31.30;;;;;;1590680;73;716;-61
2021/01/23 09:17:33;;;;;;;;;;;23.00;31.20;;;;;;1590785;74;1140;-60
2021/01/23 09:19:35;;;;;;;;;;;23.00;31.10;;;;;;1597057;73;803;-61
2021/01/23 09:21:36;;;;;;;;;;;22.90;31.00;;;;;;1577365;73;963;-61
2021/01/23 09:23:38;;;;;;;;;;;22.90;30.90;;;;;;1586847;73;724;-62
2021/01/23 09:25:42;;;;;;;;;;;22.90;30.90;;;;;;1592129;73;700;-62
2021/01/23 09:27:43;;;;;;;;;;;22.90;31.00;;;;;;1587564;73;1187;-61
2021/01/23 09:29:45;;;;;;;;;;;22.80;30.80;;;;;;1590230;73;774;-61
2021/01/23 09:31:47;;;;;;;;;;;22.80;30.70;;;;;;1591404;73;1048;-60
2021/01/23 09:33:50;;;;;;;;;;;22.80;30.80;;;;;;1587190;73;778;-60
2021/01/23 09:35:52;;;;;;;;;;;22.80;30.70;;;;;;1582259;73;847;-61
2021/01/23 09:37:54;;;;;;;;;;;22.70;30.70;;;;;;1585567;73;1934;-60
2021/01/23 09:39:57;;;;;;;;;;;22.70;30.60;;;;;;1581477;73;765;-60
2021/01/23 09:41:59;;;;;;;;;;;22.70;30.50;;;;;;1572651;73;812;-60
2021/01/23 09:44:01;;;;;;;;;;;22.70;30.60;;;;;;1579230;73;708;-61
2021/01/23 09:46:02;;;;;;;;;;;22.70;30.50;;;;;;1577304;74;735;-61
2021/01/23 09:48:05;;;;;;;;;;;22.60;30.40;;;;;;1580349;73;1166;-60
2021/01/23 09:50:07;;;;;;;;;;;22.60;30.30;;;;;;1590152;73;728;-61
2021/01/23 09:52:09;;;;;;;;;;;22.60;30.40;;;;;;1592448;73;688;-61
2021/01/23 09:54:11;;;;;;;;;;;22.50;30.30;;;;;;1587435;73;704;-61
2021/01/23 09:56:13;;;;;;;;;;;22.60;30.30;;;;;;1599615;73;698;-60
2021/01/23 09:58:15;;;;;;;;;;;22.50;30.30;;;;;;1584322;73;1952;-60
2021/01/23 10:00:17;;;;;;;;;;;22.60;30.20;;;;;;1578259;73;697;-59
2021/01/23 10:02:19;;;;;;;;;;;22.60;30.20;;;;;;1582325;74;831;-59
2021/01/23 10:04:21;;;;;;;;;;;22.60;30.00;;;;;;1590137;74;786;-60
2021/01/23 10:06:23;;;;;;;;;;;22.60;30.00;;;;;;1588012;73;651;-61
2021/01/23 10:08:25;;;;;;;;;;;22.60;30.10;;;;;;1600254;73;1154;-60
2021/01/23 10:10:28;;;;;;;;;;;22.60;30.00;;;;;;1592711;73;712;-61
2021/01/23 10:12:31;;;;;;;;;;;22.60;30.00;;;;;;1577449;73;640;-60
2021/01/23 10:14:33;;;;;;;;;;;22.60;29.90;;;;;;1576024;73;708;-60
2021/01/23 10:16:35;;;;;;;;;;;22.70;30.20;;;;;;1584384;73;699;-60
2021/01/23 10:18:37;;;;;;;;;;;22.70;30.00;;;;;;1587325;73;1940;-61
2021/01/23 10:20:39;;;;;;;;;;;22.60;29.90;;;;;;1585244;73;799;-61
2021/01/23 10:22:41;;;;;;;;;;;22.60;29.90;;;;;;1588015;73;665;-61
2021/01/23 10:24:42;;;;;;;;;;;22.60;29.90;;;;;;1590850;73;713;-61
2021/01/23 10:26:44;;;;;;;;;;;22.70;29.90;;;;;;1580304;73;733;-61
2021/01/23 10:28:46;;;;;;;;;;;22.60;29.90;;;;;;1578712;74;1106;-59
2021/01/23 10:30:48;;;;;;;;;;;22.60;29.80;;;;;;1579558;73;738;-60
2021/01/23 10:32:50;;;;;;;;;;;22.60;30.00;;;;;;1571545;73;711;-61
2021/01/23 10:34:52;;;;;;;;;;;22.60;30.00;;;;;;1582594;74;780;-60
2021/01/23 10:36:54;;;;;;;;;;;22.60;30.00;;;;;;1582372;73;1128;-61
2021/01/23 10:38:55;;;;;;;;;;;22.50;30.00;;;;;;1590685;73;1953;-60
2021/01/23 10:40:57;;;;;;;;;;;22.50;29.80;;;;;;1586884;73;704;-61
2021/01/23 10:42:59;;;;;;;;;;;22.50;29.80;;;;;;1582797;73;699;-62
2021/01/23 10:45:02;;;;;;;;;;;22.50;29.90;;;;;;1589008;73;738;-61
2021/01/23 10:47:05;;;;;;;;;;;22.50;29.90;;;;;;1576255;73;1166;-62
2021/01/23 10:49:06;;;;;;;;;;;22.50;30.00;;;;;;1584717;73;720;-62
2021/01/23 10:51:09;;;;;;;;;;;22.50;30.10;;;;;;1579932;73;1086;-61
2021/01/23 10:53:10;;;;;;;;;;;22.50;30.00;;;;;;1580494;73;725;-62
2021/01/23 10:55:13;;;;;;;;;;;22.50;29.90;;;;;;1583353;74;810;-58
2021/01/23 10:57:15;;;;;;;;;;;22.50;29.60;;;;;;1582013;73;1145;-60
2021/01/23 10:59:17;;;;;;;;;;;22.50;29.30;;;;;;1575970;73;1922;-61
2021/01/23 11:01:18;;;;;;;;;;;22.50;29.50;;;;;;1584422;73;793;-61
2021/01/23 11:03:20;;;;;;;;;;;22.40;29.40;;;;;;1586905;74;737;-60
2021/01/23 11:05:22;;;;;;;;;;;22.40;29.70;;;;;;1581756;73;679;-61
2021/01/23 11:07:24;;;;;;;;;;;22.40;29.90;;;;;;1597037;73;1067;-63
2021/01/23 11:09:26;;;;;;;;;;;22.40;29.70;;;;;;1583447;73;668;-63
2021/01/23 11:11:28;;;;;;;;;;;22.40;29.40;;;;;;1587789;73;727;-62
2021/01/23 11:13:29;;;;;;;;;;;22.40;29.30;;;;;;1585688;73;698;-64
2021/01/23 11:15:31;;;;;;;;;;;22.40;29.20;;;;;;1586629;73;736;-61
2021/01/23 11:17:33;;;;;;;;;;;22.40;28.90;;;;;;1589704;73;1182;-61
2021/01/23 11:19:35;;;;;;;;;;;22.40;28.90;;;;;;1587094;73;1897;-60
2021/01/23 11:21:37;;;;;;;;;;;22.30;28.90;;;;;;1586761;73;716;-61
2021/01/23 11:23:39;;;;;;;;;;;22.30;28.90;;;;;;1592633;73;703;-62
2021/01/23 11:25:41;;;;;;;;;;;22.30;28.90;;;;;;1580755;74;690;-61
2021/01/23 11:27:43;;;;;;;;;;;22.20;28.50;;;;;;1591554;73;1140;-62
2021/01/23 11:29:45;;;;;;;;;;;22.20;28.60;;;;;;1587438;73;1074;-61
2021/01/23 11:31:47;;;;;;;;;;;22.20;28.60;;;;;;1583485;73;733;-62
2021/01/23 11:33:48;;;;;;;;;;;22.20;28.60;;;;;;1606793;73;717;-66
2021/01/23 11:35:50;;;;;;;;;;;22.20;28.50;;;;;;1603082;73;768;-64
2021/01/23 11:37:52;;;;;;;;;;;22.10;28.50;;;;;;1580630;73;1142;-66
2021/01/23 11:39:54;;;;;;;;;;;22.10;28.50;;;;;;1597706;73;1900;-65
2021/01/23 11:41:56;;;;;;;;;;;22.00;28.30;;;;;;1590941;74;759;-64
2021/01/23 11:43:58;;;;;;;;;;;22.00;28.30;;;;;;1570804;73;811;-62
2021/01/23 11:46:03;;;;;;;;;;;22.00;28.40;;;;;;1597963;73;801;-63
2021/01/23 11:48:05;;;;;;;;;;;22.00;28.40;;;;;;1591075;73;1131;-62
2021/01/23 11:50:07;;;;;;;;;;;22.00;28.30;;;;;;1590988;73;678;-62
2021/01/23 11:52:09;;;;;;;;;;;21.90;28.40;;;;;;1600781;73;696;-64
2021/01/23 11:54:11;;;;;;;;;;;21.90;28.30;;;;;;1596502;73;654;-63
2021/01/23 11:56:14;;;;;;;;;;;21.90;28.20;;;;;;1581737;73;762;-63
2021/01/23 11:58:17;;;;;;;;;;;21.80;28.10;;;;;;1583725;73;1143;-64
2021/01/23 12:00:19;;;;;;;;;;;21.90;28.30;;;;;;1600052;73;1917;-62
2021/01/23 12:02:21;;;;;;;;;;;21.80;28.10;;;;;;1580337;74;756;-62
2021/01/23 12:04:23;;;;;;;;;;;21.80;28.10;;;;;;1595683;73;795;-63
2021/01/23 12:06:25;;;;;;;;;;;21.90;28.20;;;;;;1588421;73;771;-62
2021/01/23 12:08:27;;;;;;;;;;;21.90;28.20;;;;;;1579665;73;1129;-60
2021/01/23 12:10:29;;;;;;;;;;;21.80;28.10;;;;;;1585307;75;778;-63
2021/01/23 12:12:31;;;;;;;;;;;21.80;28.10;;;;;;1582712;74;814;-63